createdAt,value
2023-05-09T00:00:49.721Z,15.50
2023-05-09T00:03:16.388Z,14.55
2023-05-09T00:05:44.260Z,14.13
2023-05-09T00:08:11.104Z,14.15
2023-05-09T00:10:39.135Z,14.68
2023-05-09T00:13:06.335Z,14.50
2023-05-09T00:15:32.930Z,14.75
2023-05-09T00:17:59.584Z,14.85
2023-05-09T00:20:26.421Z,15.85
2023-05-09T00:22:52.977Z,14.88
2023-05-09T00:25:19.851Z,18.00
2023-05-09T00:27:46.589Z,16.95
2023-05-09T00:30:13.192Z,16.75
2023-05-09T00:32:41.413Z,17.17
2023-05-09T00:35:10.359Z,17.40
2023-05-09T00:37:37.159Z,16.20
2023-05-09T00:40:06.363Z,16.25
2023-05-09T00:42:33.543Z,13.77
2023-05-09T00:45:00.586Z,17.60
2023-05-09T00:47:29.689Z,16.60
2023-05-09T00:49:58.408Z,17.77
2023-05-09T00:52:26.348Z,16.20
2023-05-09T00:54:54.465Z,17.88
2023-05-09T00:57:22.272Z,16.45
2023-05-09T00:59:49.432Z,17.85
2023-05-09T01:02:17.827Z,17.35
2023-05-09T01:04:48.969Z,17.52
2023-05-09T01:07:25.375Z,16.42
2023-05-09T01:10:33.455Z,16.17
2023-05-09T01:13:22.283Z,17.58
2023-05-09T01:16:08.898Z,17.13
2023-05-09T01:18:47.199Z,17.45
2023-05-09T01:21:20.707Z,17.75
2023-05-09T01:24:04.000Z,15.88
2023-05-09T01:29:38.267Z,16.00
2023-05-09T01:32:10.049Z,17.17
2023-05-09T01:34:39.061Z,16.92
2023-05-09T01:37:08.632Z,16.48
2023-05-09T01:39:40.632Z,17.45
2023-05-09T01:42:09.671Z,16.77
2023-05-09T01:44:40.259Z,16.13
2023-05-09T01:47:08.767Z,16.42
2023-05-09T01:49:38.470Z,17.33
2023-05-09T01:52:10.372Z,16.42
2023-05-09T01:54:39.011Z,15.07
2023-05-09T01:57:08.097Z,15.65
2023-05-09T01:59:36.897Z,16.60
2023-05-09T02:02:04.108Z,15.98
2023-05-09T02:04:31.964Z,16.88
2023-05-09T02:07:01.785Z,16.02
2023-05-09T02:09:28.491Z,15.90
2023-05-09T02:11:55.189Z,16.58
2023-05-09T02:14:21.970Z,16.88
2023-05-09T02:16:48.745Z,14.93
2023-05-09T02:19:17.447Z,17.08
2023-05-09T02:21:44.100Z,16.20
2023-05-09T02:24:11.674Z,15.18
2023-05-09T02:26:39.367Z,15.52
2023-05-09T02:29:07.624Z,16.13
2023-05-09T02:31:35.964Z,15.73
2023-05-09T02:34:04.905Z,17.15
2023-05-09T02:36:32.718Z,15.20
2023-05-09T02:39:00.143Z,16.20
2023-05-09T02:41:29.565Z,16.23
2023-05-09T02:43:56.380Z,16.35
2023-05-09T02:46:23.082Z,15.93
2023-05-09T02:48:49.767Z,16.38
2023-05-09T02:51:16.298Z,16.48
2023-05-09T02:53:43.239Z,16.45
2023-05-09T02:56:10.856Z,15.77
2023-05-09T02:58:38.752Z,16.13
2023-05-09T03:01:05.537Z,16.80
2023-05-09T03:03:34.597Z,16.55
2023-05-09T03:06:01.840Z,17.08
2023-05-09T03:08:32.774Z,16.63
2023-05-09T03:10:59.675Z,17.25
2023-05-09T03:13:26.349Z,17.20
2023-05-09T03:15:52.951Z,16.83
2023-05-09T03:18:19.529Z,17.13
2023-05-09T03:20:46.062Z,16.67
2023-05-09T03:23:12.643Z,16.60
2023-05-09T03:25:39.191Z,15.05
2023-05-09T03:28:05.626Z,15.32
2023-05-09T03:30:33.501Z,17.17
2023-05-09T03:33:00.334Z,16.58
2023-05-09T03:35:27.166Z,15.38
2023-05-09T03:37:53.902Z,17.58
2023-05-09T03:40:22.003Z,17.25
2023-05-09T03:42:48.640Z,17.38
2023-05-09T03:45:15.379Z,15.65
2023-05-09T03:47:44.282Z,17.35
2023-05-09T03:50:10.921Z,17.35
2023-05-09T03:52:37.739Z,17.80
2023-05-09T03:55:05.991Z,16.70
2023-05-09T03:57:34.818Z,16.15
2023-05-09T04:00:02.084Z,16.52
2023-05-09T04:02:31.234Z,16.92
2023-05-09T04:04:58.031Z,16.75
2023-05-09T04:07:24.998Z,16.83
2023-05-09T04:09:51.717Z,17.70
2023-05-09T04:12:18.423Z,18.05
2023-05-09T04:14:48.125Z,15.55
2023-05-09T04:17:15.527Z,17.23
2023-05-09T04:19:42.115Z,17.27
2023-05-09T04:22:08.936Z,18.25
2023-05-09T04:24:35.894Z,16.77
2023-05-09T04:27:02.538Z,17.35
2023-05-09T04:29:29.248Z,17.17
2023-05-09T04:31:56.202Z,18.00
2023-05-09T04:34:22.880Z,16.48
2023-05-09T04:36:49.557Z,16.58
2023-05-09T04:39:16.068Z,16.98
2023-05-09T04:41:44.649Z,14.68
2023-05-09T04:44:11.293Z,15.82
2023-05-09T04:46:38.112Z,16.25
2023-05-09T04:49:04.777Z,16.25
2023-05-09T04:51:31.668Z,16.58
2023-05-09T04:53:58.469Z,16.85
2023-05-09T04:56:25.041Z,17.33
2023-05-09T04:58:52.713Z,16.40
2023-05-09T05:01:19.509Z,15.27
2023-05-09T05:03:46.062Z,17.25
2023-05-09T05:06:12.566Z,16.50
2023-05-09T05:08:39.181Z,16.10
2023-05-09T05:11:05.742Z,16.08
2023-05-09T05:13:32.429Z,16.58
2023-05-09T05:15:59.204Z,16.30
2023-05-09T05:18:26.060Z,15.23
2023-05-09T05:20:52.716Z,14.77
2023-05-09T05:23:19.405Z,15.40
2023-05-09T05:25:46.159Z,15.10
2023-05-09T05:28:12.770Z,15.65
2023-05-09T05:30:40.896Z,16.48
2023-05-09T05:33:07.733Z,15.15
2023-05-09T05:35:34.335Z,15.73
2023-05-09T05:38:01.061Z,16.98
2023-05-09T05:40:27.674Z,16.77
2023-05-09T05:42:54.479Z,16.35
2023-05-09T05:45:22.075Z,15.32
2023-05-09T05:47:49.092Z,14.77
2023-05-09T05:50:16.274Z,15.60
2023-05-09T05:52:44.858Z,15.13
2023-05-09T05:55:11.507Z,15.70
2023-05-09T05:57:39.758Z,15.02
2023-05-09T06:00:11.380Z,15.20
2023-05-09T06:02:38.494Z,15.30
2023-05-09T06:05:07.478Z,17.38
2023-05-09T06:07:35.749Z,15.63
2023-05-09T06:10:02.458Z,13.80
2023-05-09T06:12:29.333Z,14.80
2023-05-09T06:14:56.236Z,14.57
2023-05-09T06:17:25.666Z,14.77
2023-05-09T06:19:52.741Z,13.63
2023-05-09T06:22:20.954Z,14.18
2023-05-09T06:24:47.504Z,13.15
2023-05-09T06:27:14.130Z,13.77
2023-05-09T06:29:40.728Z,13.07
2023-05-09T06:32:08.769Z,13.27
2023-05-09T06:34:35.428Z,13.35
2023-05-09T06:37:01.937Z,13.07
2023-05-09T06:39:29.151Z,12.18
2023-05-09T06:41:55.651Z,11.82
2023-05-09T06:44:22.159Z,13.45
2023-05-09T06:46:49.862Z,13.65
2023-05-09T06:49:17.495Z,13.38
2023-05-09T06:51:44.522Z,12.63
2023-05-09T06:54:12.620Z,13.02
2023-05-09T06:56:39.287Z,13.20
2023-05-09T06:59:05.888Z,12.07
2023-05-09T07:01:32.449Z,20.27
2023-05-09T07:03:59.654Z,11.38
2023-05-09T07:06:26.212Z,12.30
2023-05-09T07:08:52.917Z,14.02
2023-05-09T07:11:19.594Z,13.80
2023-05-09T07:13:46.302Z,13.27
2023-05-09T07:16:13.255Z,13.20
2023-05-09T07:18:40.566Z,13.30
2023-05-09T07:21:07.602Z,12.63
2023-05-09T07:23:34.238Z,11.52
2023-05-09T07:26:01.570Z,17.27
2023-05-09T07:28:29.577Z,12.10
2023-05-09T07:30:56.749Z,11.35
2023-05-09T07:33:23.534Z,11.80
2023-05-09T07:35:50.472Z,10.68
2023-05-09T07:38:17.113Z,10.43
2023-05-09T07:40:43.859Z,11.25
2023-05-09T07:43:10.670Z,11.77
2023-05-09T07:45:37.253Z,11.07
2023-05-09T07:48:05.715Z,11.73
2023-05-09T07:50:33.519Z,12.25
2023-05-09T07:53:00.285Z,12.10
2023-05-09T07:55:26.920Z,12.73
2023-05-09T07:57:53.654Z,11.50
2023-05-09T08:00:24.373Z,12.07
2023-05-09T08:02:52.261Z,11.75
2023-05-09T08:05:19.009Z,12.40
2023-05-09T08:07:47.260Z,11.95
2023-05-09T08:10:13.962Z,11.75
2023-05-09T08:12:40.747Z,11.10
2023-05-09T08:15:07.992Z,12.00
2023-05-09T08:17:35.714Z,12.02
2023-05-09T08:20:02.514Z,12.13
2023-05-09T08:22:29.456Z,11.77
2023-05-09T08:24:56.089Z,12.23
2023-05-09T08:27:22.723Z,12.70
2023-05-09T08:29:49.600Z,12.10
2023-05-09T08:32:17.035Z,12.70
2023-05-09T08:34:44.646Z,12.15
2023-05-09T08:37:12.914Z,13.13
2023-05-09T08:39:41.767Z,12.80
2023-05-09T08:42:11.115Z,13.88
2023-05-09T08:44:38.708Z,12.05
2023-05-09T08:47:05.604Z,12.65
2023-05-09T08:49:33.499Z,12.88
2023-05-09T08:52:00.563Z,12.55
2023-05-09T08:54:29.334Z,12.52
2023-05-09T08:56:56.484Z,15.88
2023-05-09T08:59:24.287Z,13.27
2023-05-09T09:01:52.394Z,12.30
2023-05-09T09:04:19.232Z,11.80
2023-05-09T09:06:46.734Z,11.35
2023-05-09T09:09:14.759Z,12.45
2023-05-09T09:11:42.715Z,12.15
2023-05-09T09:14:22.927Z,11.27
2023-05-09T09:16:51.840Z,18.25
2023-05-09T09:19:20.249Z,12.00
2023-05-09T09:21:50.796Z,11.57
2023-05-09T09:24:22.455Z,12.23
2023-05-09T09:26:50.043Z,11.43
2023-05-09T09:29:18.734Z,11.35
2023-05-09T09:31:46.690Z,12.25
2023-05-09T09:34:19.046Z,11.23
2023-05-09T09:36:46.930Z,11.60
2023-05-09T09:39:14.243Z,10.95
2023-05-09T09:41:41.369Z,11.63
2023-05-09T09:44:09.915Z,12.18
2023-05-09T09:46:58.201Z,11.45
2023-05-09T09:49:26.774Z,12.18
2023-05-09T09:51:59.725Z,11.38
2023-05-09T09:54:28.074Z,11.48
2023-05-09T09:56:55.265Z,11.23
2023-05-09T09:59:27.346Z,11.55
2023-05-09T10:04:24.457Z,10.60
2023-05-09T10:07:22.703Z,9.93
2023-05-09T10:09:49.687Z,9.75
2023-05-09T10:12:19.960Z,11.30
2023-05-09T10:14:48.301Z,10.40
2023-05-09T10:17:16.903Z,10.80
2023-05-09T10:19:48.607Z,10.02
2023-05-09T10:22:17.995Z,10.18
2023-05-09T10:25:01.933Z,9.77
2023-05-09T10:27:32.929Z,9.25
2023-05-09T10:30:08.128Z,10.18
2023-05-09T10:33:04.733Z,9.73
2023-05-09T10:35:36.666Z,9.68
2023-05-09T10:40:32.050Z,10.13
2023-05-09T10:42:58.693Z,8.80
2023-05-09T10:45:26.032Z,8.95
2023-05-09T10:47:56.659Z,9.85
2023-05-09T10:50:24.016Z,9.35
2023-05-09T10:53:05.843Z,8.77
2023-05-09T10:55:56.856Z,9.85
2023-05-09T10:58:27.897Z,10.13
2023-05-09T11:00:57.389Z,9.90
2023-05-09T11:03:30.405Z,10.07
2023-05-09T11:05:58.575Z,9.90
2023-05-09T11:08:30.175Z,9.95
2023-05-09T11:11:00.616Z,10.30
2023-05-09T11:13:31.649Z,11.95
2023-05-09T11:16:01.851Z,11.60
2023-05-09T11:18:29.440Z,13.43
2023-05-09T11:20:56.774Z,11.93
2023-05-09T11:23:28.372Z,13.15
2023-05-09T11:26:08.491Z,15.93
2023-05-09T11:28:37.535Z,16.63
2023-05-09T11:31:24.413Z,16.55
2023-05-09T11:33:58.348Z,15.38
2023-05-09T11:36:29.943Z,15.50
2023-05-09T11:39:01.323Z,14.00
2023-05-09T11:41:29.202Z,13.48
2023-05-09T11:43:57.314Z,12.68
2023-05-09T11:46:24.065Z,12.90
2023-05-09T11:48:50.660Z,13.55
2023-05-09T11:51:18.933Z,13.50
2023-05-09T11:53:49.861Z,13.57
2023-05-09T11:56:17.375Z,14.07
2023-05-09T11:58:44.439Z,12.93
2023-05-09T12:01:12.352Z,11.73
2023-05-09T12:03:44.624Z,11.20
2023-05-09T12:06:18.792Z,10.38
2023-05-09T12:08:48.477Z,10.40
2023-05-09T12:11:15.472Z,11.40
2023-05-09T12:13:49.728Z,9.63
2023-05-09T12:16:17.720Z,10.45
2023-05-09T12:18:52.733Z,9.82
2023-05-09T12:21:20.278Z,10.10
2023-05-09T12:23:49.929Z,10.95
2023-05-09T12:26:18.376Z,8.90
2023-05-09T12:28:45.686Z,7.80
2023-05-09T12:31:13.179Z,7.18
2023-05-09T12:33:40.488Z,9.30
2023-05-09T12:36:11.596Z,14.63
2023-05-09T12:38:39.017Z,10.77
2023-05-09T12:41:15.430Z,9.35
2023-05-09T12:43:49.601Z,8.55
2023-05-09T12:46:20.416Z,9.52
2023-05-09T12:48:49.445Z,7.22
2023-05-09T12:51:21.176Z,8.70
2023-05-09T12:53:48.377Z,8.45
2023-05-09T12:56:17.480Z,6.90
2023-05-09T12:58:51.900Z,7.35
2023-05-09T13:01:19.688Z,7.40
2023-05-09T13:03:52.381Z,6.60
2023-05-09T13:06:19.451Z,12.30
2023-05-09T13:08:57.475Z,36.47
2023-05-09T13:11:24.623Z,15.40
2023-05-09T13:13:52.250Z,10.80
2023-05-09T13:16:19.071Z,11.88
2023-05-09T13:18:45.824Z,12.05
2023-05-09T13:21:12.466Z,9.70
2023-05-09T13:23:42.165Z,10.93
2023-05-09T13:26:08.798Z,9.95
2023-05-09T13:28:35.401Z,22.35
2023-05-09T13:31:03.076Z,18.80
2023-05-09T13:33:29.929Z,11.93
2023-05-09T13:35:56.998Z,10.07
2023-05-09T13:38:23.896Z,10.23
2023-05-09T13:40:50.413Z,13.55
2023-05-09T13:43:17.222Z,9.82
2023-05-09T13:45:44.867Z,12.57
2023-05-09T13:48:11.868Z,10.57
2023-05-09T13:50:38.474Z,11.38
2023-05-09T13:53:05.527Z,10.68
2023-05-09T13:55:32.243Z,10.32
2023-05-09T13:57:59.045Z,10.10
2023-05-09T14:00:26.603Z,9.73
2023-05-09T14:02:53.593Z,9.77
2023-05-09T14:05:20.467Z,10.02
2023-05-09T14:07:47.725Z,11.10
2023-05-09T14:10:14.604Z,11.45
2023-05-09T14:12:44.318Z,29.90
2023-05-09T14:15:11.610Z,10.90
2023-05-09T14:17:41.287Z,10.25
2023-05-09T14:20:08.755Z,15.68
2023-05-09T14:22:35.711Z,11.90
2023-05-09T14:25:02.756Z,11.35
2023-05-09T14:27:30.087Z,13.95
2023-05-09T14:30:00.394Z,13.27
2023-05-09T14:32:27.516Z,13.65
2023-05-09T14:34:56.914Z,15.00
2023-05-09T14:37:23.733Z,13.98
2023-05-09T14:39:53.118Z,13.88
2023-05-09T14:42:20.138Z,14.88
2023-05-09T14:44:47.470Z,13.63
2023-05-09T14:47:14.145Z,13.88
2023-05-09T14:49:41.362Z,13.50
2023-05-09T14:52:08.010Z,12.50
2023-05-09T14:54:35.233Z,13.18
2023-05-09T14:57:04.624Z,12.27
2023-05-09T14:59:32.118Z,12.10
2023-05-09T15:01:59.112Z,12.07
2023-05-09T15:04:31.090Z,12.38
2023-05-09T15:07:02.004Z,12.57
2023-05-09T15:09:31.730Z,12.55
2023-05-09T15:11:59.072Z,11.93
2023-05-09T15:14:25.765Z,11.73
2023-05-09T15:16:59.062Z,10.68
2023-05-09T15:19:26.527Z,11.15
2023-05-09T15:21:54.671Z,10.52
2023-05-09T15:24:22.058Z,11.25
2023-05-09T15:26:48.728Z,12.75
2023-05-09T15:29:15.301Z,11.35
2023-05-09T15:31:41.835Z,11.98
2023-05-09T15:34:08.405Z,13.75
2023-05-09T15:36:34.996Z,13.00
2023-05-09T15:39:03.796Z,13.20
2023-05-09T15:41:31.643Z,16.17
2023-05-09T15:43:58.508Z,16.73
2023-05-09T15:46:25.157Z,15.88
2023-05-09T15:48:56.085Z,17.63
2023-05-09T15:51:23.166Z,19.97
2023-05-09T15:53:50.067Z,37.20
2023-05-09T15:56:18.155Z,52.90
2023-05-09T15:58:44.788Z,48.97
2023-05-09T16:01:13.991Z,22.00
2023-05-09T16:03:41.444Z,23.55
2023-05-09T16:06:08.263Z,23.33
2023-05-09T16:08:38.047Z,27.70
2023-05-09T16:11:05.171Z,24.10
2023-05-09T16:13:33.053Z,23.90
2023-05-09T16:16:03.106Z,25.85
2023-05-09T16:18:29.730Z,24.23
2023-05-09T16:20:56.318Z,28.55
2023-05-09T16:23:23.789Z,26.48
2023-05-09T16:25:50.539Z,28.17
2023-05-09T16:28:20.358Z,25.98
2023-05-09T16:30:47.473Z,26.13
2023-05-09T16:33:14.567Z,28.90
2023-05-09T16:35:41.348Z,28.45
2023-05-09T16:38:10.104Z,28.48
2023-05-09T16:40:36.870Z,26.92
2023-05-09T16:43:03.585Z,27.95
2023-05-09T16:45:30.248Z,27.23
2023-05-09T16:48:00.656Z,28.27
2023-05-09T16:50:31.700Z,27.27
2023-05-09T16:52:58.239Z,27.15
2023-05-09T16:55:25.036Z,24.48
2023-05-09T16:57:51.605Z,25.95
2023-05-09T17:00:18.862Z,25.63
2023-05-09T17:02:45.749Z,27.05
2023-05-09T17:05:12.526Z,26.52
2023-05-09T17:07:39.202Z,26.63
2023-05-09T17:10:06.451Z,27.20
2023-05-09T17:12:33.185Z,25.58
2023-05-09T17:15:02.055Z,26.83
2023-05-09T17:17:29.267Z,24.67
2023-05-09T17:19:57.703Z,26.63
2023-05-09T17:22:24.952Z,26.75
2023-05-09T17:24:57.195Z,26.08
2023-05-09T17:27:47.074Z,27.55
2023-05-09T17:30:15.179Z,27.05
2023-05-09T17:32:43.462Z,27.58
2023-05-09T17:35:10.784Z,28.33
2023-05-09T17:37:37.801Z,26.75
2023-05-09T17:40:05.898Z,28.38
2023-05-09T17:42:33.129Z,28.33
2023-05-09T17:45:00.211Z,22.55
2023-05-09T17:47:27.709Z,28.92
2023-05-09T17:49:54.917Z,27.40
2023-05-09T17:52:22.284Z,27.80
2023-05-09T17:54:49.432Z,28.05
2023-05-09T17:57:16.734Z,29.25
2023-05-09T17:59:43.291Z,22.40
2023-05-09T18:02:10.387Z,18.63
2023-05-09T18:04:37.178Z,17.70
2023-05-09T18:07:04.333Z,16.05
2023-05-09T18:09:31.211Z,14.15
2023-05-09T18:11:59.154Z,16.17
2023-05-09T18:14:26.228Z,16.38
2023-05-09T18:16:52.846Z,17.38
2023-05-09T18:19:19.441Z,17.60
2023-05-09T18:21:46.343Z,14.88
2023-05-09T18:24:14.348Z,9.90
2023-05-09T18:26:42.030Z,11.05
2023-05-09T18:29:09.554Z,13.35
2023-05-09T18:31:38.948Z,13.95
2023-05-09T18:34:06.055Z,15.23
2023-05-09T18:36:32.990Z,13.60
2023-05-09T18:38:59.744Z,15.05
2023-05-09T18:41:26.577Z,11.18
2023-05-09T18:43:54.125Z,12.00
2023-05-09T18:46:21.220Z,12.15
2023-05-09T18:48:51.203Z,13.50
2023-05-09T18:51:19.095Z,16.52
2023-05-09T18:53:47.391Z,18.73
2023-05-09T18:56:14.323Z,13.55
2023-05-09T18:58:41.517Z,13.05
2023-05-09T19:01:11.435Z,14.30
2023-05-09T19:03:45.378Z,12.40
2023-05-09T19:06:14.793Z,13.95
2023-05-09T19:08:43.487Z,13.27
2023-05-09T19:11:11.931Z,13.93
2023-05-09T19:13:40.785Z,14.05
2023-05-09T19:16:08.666Z,14.18
2023-05-09T19:18:35.322Z,13.82
2023-05-09T19:21:01.942Z,13.43
2023-05-09T19:23:29.986Z,11.23
2023-05-09T19:25:56.601Z,12.68
2023-05-09T19:28:23.712Z,12.85
2023-05-09T19:30:50.389Z,10.20
2023-05-09T19:33:17.800Z,10.60
2023-05-09T19:35:44.517Z,11.30
2023-05-09T19:38:12.047Z,13.45
2023-05-09T19:40:39.600Z,15.90
2023-05-09T19:43:06.604Z,13.48
2023-05-09T19:45:33.305Z,13.85
2023-05-09T19:48:00.623Z,11.65
2023-05-09T19:50:27.321Z,13.35
2023-05-09T19:52:53.922Z,11.40
2023-05-09T19:55:20.864Z,13.07
2023-05-09T19:57:47.673Z,9.40
2023-05-09T20:00:14.804Z,8.65
2023-05-09T20:02:41.676Z,7.80
2023-05-09T20:05:08.851Z,9.15
2023-05-09T20:07:35.430Z,8.90
2023-05-09T20:10:02.026Z,9.05
2023-05-09T20:12:30.237Z,8.90
2023-05-09T20:14:57.297Z,8.93
2023-05-09T20:17:23.939Z,11.00
2023-05-09T20:19:53.291Z,9.85
2023-05-09T20:22:19.857Z,9.98
2023-05-09T20:24:46.546Z,9.70
2023-05-09T20:27:14.601Z,10.07
2023-05-09T20:29:41.423Z,10.18
2023-05-09T20:32:11.645Z,11.57
2023-05-09T20:34:38.278Z,12.15
2023-05-09T20:37:05.228Z,11.80
2023-05-09T20:39:34.792Z,12.48
2023-05-09T20:42:02.627Z,13.88
2023-05-09T20:44:29.473Z,11.85
2023-05-09T20:46:56.300Z,10.40
2023-05-09T20:49:23.863Z,11.55
2023-05-09T20:51:50.697Z,10.68
2023-05-09T20:54:18.484Z,10.15
2023-05-09T20:56:45.331Z,11.10
2023-05-09T20:59:12.441Z,11.88
2023-05-09T21:01:40.293Z,12.18
2023-05-09T21:04:08.340Z,9.82
2023-05-09T21:06:36.151Z,10.98
2023-05-09T21:09:03.942Z,10.15
2023-05-09T21:11:30.669Z,11.10
2023-05-09T21:13:57.224Z,9.77
2023-05-09T21:16:23.775Z,8.70
2023-05-09T21:18:50.330Z,10.50
2023-05-09T21:21:17.218Z,10.02
2023-05-09T21:23:43.818Z,8.18
2023-05-09T21:26:11.646Z,7.50
2023-05-09T21:28:38.352Z,7.32
2023-05-09T21:31:05.265Z,9.48
2023-05-09T21:33:32.192Z,8.05
2023-05-09T21:35:59.351Z,8.52
2023-05-09T21:38:26.127Z,7.72
2023-05-09T21:40:52.914Z,7.72
2023-05-09T21:43:19.652Z,6.82
2023-05-09T21:45:46.279Z,8.23
2023-05-09T21:48:13.303Z,7.68
2023-05-09T21:50:40.048Z,8.48
2023-05-09T21:53:06.688Z,7.63
2023-05-09T21:55:33.313Z,7.32
2023-05-09T21:57:59.863Z,8.32
2023-05-09T22:00:26.527Z,7.63
2023-05-09T22:02:53.390Z,8.60
2023-05-09T22:05:20.502Z,8.05
2023-05-09T22:07:47.038Z,8.20
2023-05-09T22:10:13.786Z,7.95
2023-05-09T22:12:40.506Z,7.32
2023-05-09T22:15:07.650Z,8.00
2023-05-09T22:17:34.357Z,7.55
2023-05-09T22:20:01.363Z,7.72
2023-05-09T22:22:28.257Z,7.30
2023-05-09T22:24:54.952Z,7.35
2023-05-09T22:27:22.685Z,6.05
2023-05-09T22:29:49.466Z,6.35
2023-05-09T22:32:16.455Z,7.72
2023-05-09T22:34:46.036Z,8.27
2023-05-09T22:37:12.623Z,9.50
2023-05-09T22:39:40.270Z,6.13
2023-05-09T22:42:09.324Z,8.23
2023-05-09T22:44:35.861Z,7.95
2023-05-09T22:47:02.730Z,8.00
2023-05-09T22:49:29.318Z,7.88
2023-05-09T22:51:55.930Z,8.30
2023-05-09T22:54:22.456Z,7.78
2023-05-09T22:56:49.390Z,8.30
2023-05-09T22:59:16.236Z,7.60
2023-05-09T23:01:42.817Z,8.15
2023-05-09T23:04:09.419Z,8.00
2023-05-09T23:06:36.070Z,7.50
2023-05-09T23:09:02.803Z,7.68
2023-05-09T23:11:29.568Z,7.18
2023-05-09T23:13:56.238Z,8.63
2023-05-09T23:16:22.883Z,7.93
2023-05-09T23:18:50.573Z,7.57
2023-05-09T23:21:17.170Z,7.38
2023-05-09T23:23:43.660Z,7.82
2023-05-09T23:26:10.418Z,8.32
2023-05-09T23:28:37.074Z,7.13
2023-05-09T23:31:03.838Z,7.68
2023-05-09T23:33:30.462Z,8.00
2023-05-09T23:35:57.273Z,6.32
2023-05-09T23:38:23.878Z,8.38
2023-05-09T23:40:55.748Z,8.40
2023-05-09T23:43:22.373Z,8.27
2023-05-09T23:45:49.279Z,8.93
2023-05-09T23:48:15.890Z,8.30
2023-05-09T23:50:43.057Z,8.95
2023-05-09T23:53:09.566Z,6.55
2023-05-09T23:55:36.272Z,2.60
2023-05-09T23:58:02.831Z,2.40
